Aviation Digital Data Service (ADDS)

Output produced by METARs form (2349 UTC 24 October 2014)
found at http://aviationweather.gov/adds/metars/
 
KAEX 242322Z 2500/2524 01005KT P6SM SKC